Página principal
METAR-TAF:

METAR-TAF

Aeroportos :

Hong Kong, China

Aeroporto Internacional de Hong Kong

latitude: 22-19N, longitude: 113-55E, altura: 9 m

Observação actual do tempo

O boletim foi feito há 19 minutos, às 22:30 UTC
Vento 9 kt de norte
Temperatura 18°C
Humidade 73%
Pressão 1017 hPa
Visibilidade 10 km ou mais
Poucas nuvensa uma altura de 2200 ft

METAR: VHHH 212230Z 01009KT 9999 FEW022 18/13 Q1017 NOSIG

Hora: 06:49 (22:49 UTC)

Previsão

O boletim foi feito há 5 horas e 49 minutos, às 17:00 UTC
Previsão válida de 21 às 18 UTC a 22 às 24 UTC
Vento 10 kt de nor-nordeste
Visibilidade: 8000 m
Poucas nuvensa uma altura de 3500 ft
Temporariamente
de 22 às 04 UTC a 22 às 10 UTC
Vento 10 kt de noroeste
Temporariamente
de 22 às 16 UTC a 22 às 24 UTC
Vento 20 kt de norte

TAF: VHHH 211700Z 2118/2224 02010KT 8000 FEW035 TX22/2206Z TN18/2123Z TN17/2223Z TEMPO 2204/2210 32010KT TEMPO 2216/2224 36020KT

Observações e previsões do tempo de mais de 4000 aeroportos (mensagens METAR e TAF).

As estações disponíveis são os pontos amarelos e vermelhos sobre o mapa.

Mova o rato sobre o mapa para ver o nome da estação.

Depois clique no ponto para visualizar as observações e previsões meteorológicas.

Para alterar o mapa : clique nos botões verdes com uma cruz preta para aumentar o zoom; no botão verde com uma pitada de zoom; ou nas setas verdes para mapas adjacentes.


METAR-TAF: